Terminal Aerodrome Forecast
Issued by NWS Topeka, KS

Home | Current Version | Previous Version | Text Only | Print | Product List | Glossary On
Versions: 1 2 3 4 5 6 7 8 9 10 11 12 13 14
197
FTUS43 KTOP 071133
TAFTOP
TAF
KTOP 071133Z 0712/0812 27011KT P6SM BKN150
     FM071700 30020G30KT P6SM SCT090
     FM080000 31016G25KT P6SM BKN060
     FM080700 31018G26KT P6SM SCT020 OVC035=

USA.gov is the U.S. government's official web portal to all federal, state and local government web resources and services.